Time;durP1;ratioP1;P1;durP2;ratioP2;P2;SDS_P1;SDS_P2;PMS_P1;PMS_P2;Temp;Humidity;BMP_temperature;BMP_pressure;BME280_temperature;BME280_humidity;BME280_pressure;Samples;Min_cycle;Max_cycle;Signal;HPM_P1;HPM_P2
2021/03/30 00:00:46;;;;;;;1.75;1.40;;;;;;;3.73;100.00;100973.94;4974675;28;20056;-79
2021/03/30 00:03:51;;;;;;;1.75;1.48;;;;;;;3.65;100.00;100973.19;4979407;28;20065;-79
2021/03/30 00:06:54;;;;;;;1.15;1.13;;;;;;;3.61;100.00;100977.94;4978075;28;20077;-80
2021/03/30 00:09:58;;;;;;;7.38;2.40;;;;;;;3.56;100.00;100975.59;4977518;28;20061;-79
2021/03/30 00:13:01;;;;;;;2.83;2.10;;;;;;;3.57;100.00;100976.38;4987160;28;20057;-81
2021/03/30 00:16:06;;;;;;;1.50;1.40;;;;;;;3.57;100.00;100981.91;4978307;28;20832;-78
2021/03/30 00:19:10;;;;;;;1.48;0.90;;;;;;;3.48;100.00;100973.28;4975160;28;20092;-78
2021/03/30 00:22:14;;;;;;;1.05;1.05;;;;;;;3.45;100.00;100968.56;4982824;28;20057;-79
2021/03/30 00:25:17;;;;;;;2.17;2.08;;;;;;;3.40;100.00;100974.50;4975280;28;20061;-79
2021/03/30 00:28:21;;;;;;;4.18;1.85;;;;;;;3.36;100.00;100976.44;4977838;28;20162;-80
2021/03/30 00:31:25;;;;;;;2.67;1.45;;;;;;;3.27;100.00;100973.38;4971596;28;20052;-79
2021/03/30 00:34:29;;;;;;;0.80;0.80;;;;;;;3.19;100.00;100967.09;4969050;28;20179;-80
2021/03/30 00:37:32;;;;;;;3.30;2.13;;;;;;;3.13;100.00;100973.41;4972925;28;20069;-80
2021/03/30 00:40:37;;;;;;;1.73;1.40;;;;;;;3.08;100.00;100972.63;4974673;28;20171;-80
2021/03/30 00:43:41;;;;;;;1.35;1.25;;;;;;;3.03;100.00;100975.78;4977589;28;20061;-81
2021/03/30 00:46:46;;;;;;;1.42;1.33;;;;;;;3.01;100.00;100971.88;4959364;28;20684;-79
2021/03/30 00:49:51;;;;;;;2.22;2.03;;;;;;;2.95;100.00;100981.69;4959884;28;20282;-77
2021/03/30 00:52:55;;;;;;;3.38;1.92;;;;;;;2.86;100.00;100971.09;4958438;28;20389;-79
2021/03/30 00:55:59;;;;;;;10.48;1.98;;;;;;;2.79;100.00;100976.63;4983344;28;20064;-79
2021/03/30 00:59:03;;;;;;;2.40;1.83;;;;;;;2.76;100.00;100980.16;4983875;28;20712;-79
2021/03/30 01:02:07;;;;;;;5.22;2.15;;;;;;;2.75;100.00;100973.06;4962116;28;20053;-78
2021/03/30 01:05:12;;;;;;;2.47;1.98;;;;;;;2.72;100.00;100981.34;4974859;28;20065;-80
2021/03/30 01:08:39;;;;;;;1.13;1.13;;;;;;;2.73;100.00;100980.94;4984839;28;20639;-80
2021/03/30 01:12:04;;;;;;;1.75;1.75;;;;;;;2.86;100.00;100981.31;4976220;28;20068;-82
2021/03/30 01:15:44;;;;;;;1.55;1.45;;;;;;;3.03;100.00;100978.53;4974876;28;20281;-81
2021/03/30 01:19:17;;;;;;;4.32;1.75;;;;;;;3.19;100.00;100980.84;4958755;28;20699;-80
2021/03/30 01:22:39;;;;;;;6.75;1.77;;;;;;;3.36;100.00;100987.47;4980180;28;20057;-81
2021/03/30 01:25:52;;;;;;;1.20;1.20;;;;;;;3.52;100.00;100985.06;4962791;28;20418;-82
2021/03/30 01:29:11;;;;;;;3.88;1.98;;;;;;;3.67;100.00;100986.56;4964602;28;20171;-82
2021/03/30 01:32:23;;;;;;;14.07;2.70;;;;;;;3.82;100.00;100990.81;4984578;28;20151;-82
2021/03/30 01:35:29;;;;;;;2.20;1.50;;;;;;;3.91;100.00;100985.63;4993746;28;20184;-81
2021/03/30 01:38:32;;;;;;;1.30;1.30;;;;;;;4.02;100.00;100982.81;4992748;28;20957;-82
2021/03/30 01:41:37;;;;;;;0.98;0.90;;;;;;;4.12;100.00;100980.00;4994401;28;20072;-81
2021/03/30 01:44:41;;;;;;;2.28;1.33;;;;;;;4.20;100.00;100981.50;4982450;28;20262;-81
2021/03/30 01:47:46;;;;;;;4.32;1.95;;;;;;;4.28;100.00;100977.53;4983233;28;20261;-83
2021/03/30 01:50:52;;;;;;;1.40;1.30;;;;;;;4.36;100.00;100973.50;4991637;28;20068;-82
2021/03/30 01:53:59;;;;;;;1.55;1.45;;;;;;;4.45;100.00;100971.06;4984948;28;20072;-81
2021/03/30 01:57:05;;;;;;;2.08;1.42;;;;;;;4.52;100.00;100970.25;4991084;28;20087;-81
2021/03/30 02:00:10;;;;;;;3.40;1.85;;;;;;;4.57;100.00;100978.84;4986402;28;20190;-82
2021/03/30 02:03:16;;;;;;;7.22;1.05;;;;;;;4.58;100.00;100974.91;4986717;28;20733;-82
2021/03/30 02:06:22;;;;;;;2.30;1.10;;;;;;;4.61;100.00;100979.59;4974488;28;20057;-82
2021/03/30 02:09:31;;;;;;;2.25;1.00;;;;;;;4.65;100.00;100978.78;4971316;28;21038;-82
2021/03/30 02:12:41;;;;;;;5.45;1.35;;;;;;;4.68;100.00;100977.97;4970855;28;20286;-80
2021/03/30 02:15:44;;;;;;;2.03;1.83;;;;;;;4.74;100.00;100979.09;4983312;28;20504;-83
2021/03/30 02:19:11;;;;;;;1.48;1.38;;;;;;;4.79;100.00;100975.88;4990944;28;20491;-82
2021/03/30 02:22:24;;;;;;;1.70;1.60;;;;;;;4.89;100.00;100975.00;4978495;28;20246;-82
2021/03/30 02:25:30;;;;;;;2.83;1.13;;;;;;;4.91;100.00;100983.66;4988791;28;21103;-82
2021/03/30 02:28:58;;;;;;;1.85;0.98;;;;;;;4.94;100.00;100980.84;4992302;28;20060;-81
2021/03/30 02:32:03;;;;;;;1.33;1.23;;;;;;;4.95;100.00;100976.13;4994144;28;20060;-81
2021/03/30 02:35:09;;;;;;;2.80;1.58;;;;;;;4.93;100.00;100975.75;4992819;28;20060;-80
2021/03/30 02:38:13;;;;;;;3.47;2.08;;;;;;;4.92;100.00;100980.50;4989714;28;20048;-80
2021/03/30 02:41:17;;;;;;;2.08;1.30;;;;;;;4.94;100.00;100977.31;4993245;28;20060;-82
2021/03/30 02:44:21;;;;;;;1.02;1.02;;;;;;;4.96;100.00;100988.75;4989894;28;20133;-80
2021/03/30 02:47:25;;;;;;;0.90;0.85;;;;;;;4.97;100.00;100984.78;4990758;28;20548;-81
2021/03/30 02:50:29;;;;;;;2.33;1.27;;;;;;;4.96;100.00;100975.72;4990654;28;20591;-80
2021/03/30 02:53:34;;;;;;;1.48;1.38;;;;;;;4.99;100.00;100982.41;4992013;28;20056;-81
2021/03/30 02:56:38;;;;;;;3.40;1.40;;;;;;;5.01;100.00;100982.75;4991970;28;20170;-81
2021/03/30 02:59:42;;;;;;;3.50;0.93;;;;;;;5.03;100.00;100975.66;4993536;28;20068;-82
2021/03/30 03:02:47;;;;;;;1.40;1.30;;;;;;;5.03;100.00;100977.63;4984611;28;20068;-81
2021/03/30 03:05:51;;;;;;;7.65;1.65;;;;;;;5.05;100.00;100981.53;4993894;28;20068;-81
2021/03/30 03:08:56;;;;;;;1.85;1.35;;;;;;;5.09;100.00;100987.03;4986388;28;21212;-81
2021/03/30 03:12:00;;;;;;;1.10;0.88;;;;;;;5.13;100.00;100985.03;4988596;28;20113;-81
2021/03/30 03:15:07;;;;;;;1.95;1.33;;;;;;;5.16;100.00;100981.41;4993670;28;20060;-81
2021/03/30 03:18:12;;;;;;;1.90;1.67;;;;;;;5.14;100.00;100973.56;4993960;28;20170;-82
2021/03/30 03:21:16;;;;;;;2.38;1.23;;;;;;;5.11;100.00;100973.59;4993958;28;20931;-81
2021/03/30 03:24:21;;;;;;;3.50;1.70;;;;;;;5.03;100.00;100972.09;4993196;28;20068;-83
2021/03/30 03:27:29;;;;;;;11.00;2.40;;;;;;;4.92;100.00;100971.41;4992889;28;20072;-81
2021/03/30 03:30:34;;;;;;;2.95;1.90;;;;;;;4.84;100.00;100967.97;4993357;28;20182;-82
2021/03/30 03:33:38;;;;;;;7.32;1.75;;;;;;;4.83;100.00;100968.38;4973431;28;20261;-82
2021/03/30 03:36:46;;;;;;;4.43;2.00;;;;;;;4.88;100.00;100962.41;4965801;28;20061;-81
2021/03/30 03:39:50;;;;;;;5.35;2.45;;;;;;;4.86;100.00;100962.81;4969618;28;20278;-81
2021/03/30 03:42:55;;;;;;;8.20;2.67;;;;;;;4.87;100.00;100963.59;4970930;28;20420;-84
2021/03/30 03:45:59;;;;;;;3.17;1.88;;;;;;;4.94;100.00;100952.47;4968664;28;20069;-82
2021/03/30 03:49:05;;;;;;;6.55;2.08;;;;;;;5.02;100.00;100945.69;4971594;28;20167;-81
2021/03/30 03:52:12;;;;;;;13.40;2.85;;;;;;;5.04;100.00;100954.34;4972843;28;20068;-80
2021/03/30 03:55:18;;;;;;;4.13;2.00;;;;;;;5.09;100.00;100945.63;4975146;28;20061;-82
2021/03/30 03:58:30;;;;;;;3.50;1.98;;;;;;;5.13;100.00;100955.41;4974148;28;21191;-82
2021/03/30 04:02:01;;;;;;;1.50;1.40;;;;;;;5.18;100.00;100957.72;4973487;28;20057;-81
2021/03/30 04:05:10;;;;;;;;;;;;;;;5.19;100.00;100966.81;4969288;28;20061;-81
2021/03/30 04:08:16;;;;;;;1.90;0.85;;;;;;;5.21;100.00;100961.66;4968082;28;19921;-81
2021/03/30 04:11:20;;;;;;;5.75;1.02;;;;;;;5.22;100.00;100977.78;4967825;28;20053;-82
2021/03/30 04:14:24;;;;;;;2.63;0.90;;;;;;;5.23;100.00;100981.34;4957633;28;20065;-80
2021/03/30 04:17:28;;;;;;;8.05;1.52;;;;;;;5.24;100.00;100980.16;4959703;28;21065;-80
2021/03/30 04:20:32;;;;;;;3.13;1.75;;;;;;;5.25;100.00;100974.22;4959475;28;20061;-80
2021/03/30 04:23:42;;;;;;;5.32;2.17;;;;;;;5.28;100.00;100984.44;4980081;28;20053;-80
2021/03/30 04:26:45;;;;;;;4.22;2.15;;;;;;;5.29;100.00;100990.75;4973165;28;20065;-80
2021/03/30 04:29:49;;;;;;;1.75;1.23;;;;;;;5.32;100.00;100978.88;4964362;28;20155;-80
2021/03/30 04:32:53;;;;;;;6.80;2.60;;;;;;;5.32;100.00;100979.66;4983484;28;20647;-80
2021/03/30 04:35:57;;;;;;;9.35;2.35;;;;;;;5.30;100.00;100984.81;4995442;28;20056;-79
2021/03/30 04:39:00;;;;;;;6.25;2.13;;;;;;;5.22;100.00;100990.81;4989646;28;20088;-82
2021/03/30 04:42:04;;;;;;;10.23;2.60;;;;;;;5.17;100.00;100988.53;4995408;28;20968;-80
2021/03/30 04:45:09;;;;;;;6.80;2.35;;;;;;;5.16;100.00;100987.72;4983845;28;20096;-82
2021/03/30 04:48:13;;;;;;;5.80;2.17;;;;;;;5.19;100.00;100991.66;4995456;28;20123;-81
2021/03/30 04:51:17;;;;;;;7.78;4.25;;;;;;;5.22;100.00;100988.84;4995569;28;20095;-81
2021/03/30 04:54:21;;;;;;;30.77;4.18;;;;;;;5.25;100.00;100992.75;4995962;28;20056;-82
2021/03/30 04:57:25;;;;;;;15.27;3.60;;;;;;;5.29;100.00;100987.97;4995794;28;20057;-81
2021/03/30 05:00:29;;;;;;;7.18;3.58;;;;;;;5.28;100.00;100983.66;4998063;28;20277;-81
2021/03/30 05:03:32;;;;;;;11.65;2.58;;;;;;;5.33;100.00;100988.72;4998479;28;20065;-81
2021/03/30 05:06:36;;;;;;;3.80;2.08;;;;;;;5.32;100.00;100989.94;4994440;28;20104;-82
2021/03/30 05:09:40;;;;;;;7.88;2.60;;;;;;;5.31;100.00;100993.88;4992939;28;20277;-81
2021/03/30 05:12:43;;;;;;;11.43;3.30;;;;;;;5.30;100.00;100998.63;4992813;28;20088;-82
2021/03/30 05:15:47;;;;;;;7.72;2.72;;;;;;;5.30;100.00;101001.41;4985755;28;20080;-82
2021/03/30 05:18:50;;;;;;;4.88;2.15;;;;;;;5.28;100.00;101001.00;4991637;28;20249;-83
2021/03/30 05:21:54;;;;;;;6.53;3.13;;;;;;;5.28;100.00;101001.00;4985574;28;20064;-81
2021/03/30 05:24:58;;;;;;;2.72;2.13;;;;;;;5.34;100.00;100998.59;4983449;28;20174;-81
2021/03/30 05:28:03;;;;;;;41.38;4.60;;;;;;;5.34;100.00;100996.63;4983106;28;20110;-81
2021/03/30 05:31:07;;;;;;;5.97;2.42;;;;;;;5.34;100.00;100996.63;4989806;28;20084;-83
2021/03/30 05:34:11;;;;;;;6.13;2.85;;;;;;;5.35;100.00;101000.94;4966034;28;20571;-80
2021/03/30 05:37:15;;;;;;;6.30;3.08;;;;;;;5.34;100.00;101006.88;4970383;28;20077;-81
2021/03/30 05:40:20;;;;;;;8.65;2.63;;;;;;;5.29;100.00;101007.31;4970250;28;20588;-81
2021/03/30 05:43:23;;;;;;;2.35;1.42;;;;;;;5.18;100.00;101006.63;4965280;28;20270;-81
2021/03/30 05:46:27;;;;;;;13.15;3.58;;;;;;;5.13;100.00;101007.09;4954771;28;20271;-81
2021/03/30 05:49:31;;;;;;;3.95;1.83;;;;;;;5.07;100.00;101011.47;4952015;28;20081;-80
2021/03/30 05:55:58;;;;;;;10.23;2.28;;;;;;;5.00;100.00;101017.09;4967320;28;20081;-80
2021/03/30 05:59:05;;;;;;;5.18;2.58;;;;;;;4.95;100.00;101017.53;4964884;28;20270;-82
2021/03/30 06:02:19;;;;;;;4.13;2.30;;;;;;;4.89;100.00;101016.41;4960750;28;20675;-82
2021/03/30 06:05:24;;;;;;;2.97;1.77;;;;;;;4.83;100.00;101018.06;4965818;28;20267;-81
2021/03/30 06:08:30;;;;;;;4.47;2.55;;;;;;;4.82;100.00;101016.47;4955056;28;20435;-82
2021/03/30 06:11:35;;;;;;;5.65;2.40;;;;;;;4.81;100.00;101014.91;4954349;28;20354;-81
2021/03/30 06:14:41;;;;;;;7.50;1.67;;;;;;;4.81;100.00;101014.91;4960137;28;20626;-81
2021/03/30 06:17:49;;;;;;;3.38;2.28;;;;;;;4.76;100.00;101018.09;4965269;28;20286;-82
2021/03/30 06:20:53;;;;;;;10.30;2.22;;;;;;;4.70;100.00;101008.72;4966472;28;20261;-82
2021/03/30 06:23:58;;;;;;;40.55;2.92;;;;;;;4.71;100.00;101016.56;4966714;28;20273;-83
2021/03/30 06:27:04;;;;;;;10.77;2.20;;;;;;;4.69;100.00;101016.19;4967919;28;20167;-82
2021/03/30 06:30:09;;;;;;;3.15;1.48;;;;;;;4.72;100.00;101018.13;4967753;28;20085;-81
2021/03/30 06:33:13;;;;;;;12.13;3.55;;;;;;;4.70;100.00;101017.00;4972483;28;20237;-82
2021/03/30 06:36:25;;;;;;;5.38;3.20;;;;;;;4.69;100.00;101021.72;4987039;28;20099;-81
2021/03/30 06:39:37;;;;;;;28.05;5.90;;;;;;;4.75;100.00;101016.53;4988505;28;20174;-81
2021/03/30 06:45:44;;;;;;;14.00;6.30;;;;;;;4.95;100.00;101014.78;4992476;28;20516;-82
2021/03/30 06:48:48;;;;;;;4.93;2.17;;;;;;;5.04;100.00;101012.31;4985925;28;20257;-81
2021/03/30 06:51:54;;;;;;;6.75;2.50;;;;;;;5.10;100.00;101019.75;4980263;28;20245;-83
2021/03/30 06:54:57;;;;;;;8.15;2.50;;;;;;;5.17;100.00;101022.44;4986829;28;20612;-82
2021/03/30 06:58:03;;;;;;;7.97;2.60;;;;;;;5.13;100.00;101020.91;4986998;28;20449;-82
2021/03/30 07:01:07;;;;;;;13.50;2.28;;;;;;;5.07;100.00;101022.53;4992631;28;20060;-82
2021/03/30 07:04:11;;;;;;;8.30;2.40;;;;;;;5.08;100.00;101035.94;4992725;28;20545;-82
2021/03/30 07:07:16;;;;;;;5.93;2.47;;;;;;;5.08;100.00;101029.63;4992801;28;20776;-82
2021/03/30 07:10:20;;;;;;;4.35;1.65;;;;;;;5.06;100.00;101040.31;4991733;28;20667;-81
2021/03/30 07:13:24;;;;;;;4.63;2.20;;;;;;;4.98;100.00;101030.53;4990508;28;20084;-80
2021/03/30 07:16:54;;;;;;;3.20;1.45;;;;;;;4.94;100.00;101041.59;4991877;28;20056;-79
2021/03/30 07:20:03;;;;;;;6.68;3.03;;;;;;;5.06;100.00;101035.56;4991146;28;20210;-83
2021/03/30 07:23:28;;;;;;;3.45;2.28;;;;;;;5.25;100.00;101039.72;4990990;28;20285;-80
2021/03/30 07:26:45;;;;;;;4.15;1.55;;;;;;;5.30;100.00;101042.81;4989023;28;20248;-82
2021/03/30 07:29:50;;;;;;;3.55;1.27;;;;;;;5.27;100.00;101048.38;4984314;28;20718;-81
2021/03/30 07:33:21;;;;;;;6.95;2.42;;;;;;;5.23;100.00;101044.84;4992585;28;20368;-82
2021/03/30 07:36:31;;;;;;;4.65;1.90;;;;;;;5.28;100.00;101038.91;4997766;28;20065;-82
2021/03/30 07:39:48;;;;;;;7.10;2.65;;;;;;;5.35;100.00;101044.31;4995622;28;20067;-80
2021/03/30 07:42:52;;;;;;;8.75;1.98;;;;;;;5.39;100.00;101036.81;4986744;28;20641;-81
2021/03/30 07:46:01;;;;;;;3.85;1.95;;;;;;;5.46;100.00;101045.00;4995283;28;20688;-81
2021/03/30 07:49:05;;;;;;;5.03;2.80;;;;;;;5.55;100.00;101037.00;4994095;28;20644;-82
2021/03/30 07:52:18;;;;;;;2.65;1.55;;;;;;;5.67;100.00;101038.44;4987664;28;20324;-82
2021/03/30 07:55:28;;;;;;;5.13;2.45;;;;;;;5.79;100.00;101040.66;4993062;28;20283;-83
2021/03/30 07:58:51;;;;;;;4.90;1.60;;;;;;;5.95;100.00;101044.44;4993968;28;20060;-82
2021/03/30 08:01:55;;;;;;;1.88;1.67;;;;;;;6.04;100.00;101041.94;4994943;28;20166;-81
2021/03/30 08:05:10;;;;;;;2.80;1.30;;;;;;;6.16;100.00;101039.81;4989793;28;20080;-83
2021/03/30 08:08:24;;;;;;;7.70;2.17;;;;;;;6.30;100.00;101036.84;4994458;28;20269;-82
2021/03/30 08:11:55;;;;;;;8.15;2.20;;;;;;;6.43;100.00;101035.06;4994081;28;20072;-82
2021/03/30 08:14:59;;;;;;;2.08;1.02;;;;;;;6.56;100.00;101033.28;4992884;28;20084;-81
2021/03/30 08:18:03;;;;;;;6.65;1.85;;;;;;;6.65;100.00;101027.97;4992704;28;20060;-81
2021/03/30 08:21:08;;;;;;;7.25;2.03;;;;;;;6.78;100.00;101034.47;4995206;28;20061;-82
2021/03/30 08:24:12;;;;;;;4.78;1.88;;;;;;;6.83;100.00;101034.81;4989764;28;20088;-81
2021/03/30 08:27:31;;;;;;;5.57;2.22;;;;;;;6.98;100.00;101031.78;4989729;28;20080;-80
2021/03/30 08:30:41;;;;;;;4.95;1.70;;;;;;;7.11;100.00;101029.97;4989094;28;20065;-82
2021/03/30 08:33:47;;;;;;;3.17;1.85;;;;;;;7.25;100.00;101024.97;4960786;28;20081;-82
2021/03/30 08:36:57;;;;;;;10.18;2.60;;;;;;;7.45;100.00;101028.50;4961936;28;20537;-81
2021/03/30 08:40:01;;;;;;;7.65;2.50;;;;;;;7.65;100.00;101028.50;4963824;28;20367;-83
2021/03/30 08:43:13;;;;;;;8.05;2.78;;;;;;;7.92;100.00;101034.69;4968807;28;20163;-82
2021/03/30 08:46:18;;;;;;;6.50;2.33;;;;;;;8.17;100.00;101045.22;4966599;28;20183;-82
2021/03/30 08:49:44;;;;;;;3.88;1.92;;;;;;;8.32;100.00;101046.50;4970541;28;20588;-81
2021/03/30 08:52:48;;;;;;;5.00;1.55;;;;;;;8.50;100.00;101041.34;4973056;28;20080;-81
2021/03/30 08:55:52;;;;;;;7.35;2.67;;;;;;;8.66;100.00;101044.13;4974611;28;20363;-81
2021/03/30 08:58:57;;;;;;;8.95;2.50;;;;;;;8.80;100.00;101043.78;4969085;28;20085;-83
2021/03/30 09:02:04;;;;;;;5.55;1.45;;;;;;;9.04;100.00;101041.59;4963415;28;20266;-81
2021/03/30 09:05:15;;;;;;;5.47;1.38;;;;;;;9.24;100.00;101035.91;4975640;28;20092;-81
2021/03/30 09:08:35;;;;;;;2.00;0.57;;;;;;;9.38;100.00;101039.09;4963050;28;20077;-82
2021/03/30 09:11:38;;;;;;;5.55;2.00;;;;;;;9.55;100.00;101031.50;4951838;28;20393;-79
2021/03/30 09:14:43;;;;;;;6.25;2.15;;;;;;;9.72;100.00;101030.22;4952935;28;20446;-81
2021/03/30 09:18:00;;;;;;;4.05;1.30;;;;;;;10.00;100.00;101026.59;4955910;28;20414;-81
2021/03/30 09:21:15;;;;;;;6.20;2.15;;;;;;;10.22;100.00;101018.41;4972493;28;20069;-82
2021/03/30 09:25:05;;;;;;;11.30;1.38;;;;;;;10.47;100.00;101023.97;4972067;28;20179;-82
2021/03/30 09:27:47;;;;;;;5.88;2.33;;;;;;;10.65;100.00;101016.56;4953697;28;20050;-81
2021/03/30 09:30:51;;;;;;;6.55;2.13;;;;;;;10.90;100.00;101012.19;4975212;28;20290;-81
2021/03/30 09:33:57;;;;;;;3.97;0.98;;;;;;;11.08;100.00;101001.22;4967392;28;20275;-81
2021/03/30 09:37:01;;;;;;;4.20;1.38;;;;;;;11.22;100.00;101001.50;4969334;28;20286;-81
2021/03/30 09:40:07;;;;;;;2.13;0.60;;;;;;;11.35;100.00;101001.44;4973288;28;20175;-80
2021/03/30 09:43:13;;;;;;;4.53;0.73;;;;;;;11.67;100.00;100997.53;4954103;28;20536;-81
2021/03/30 09:46:17;;;;;;;5.93;1.42;;;;;;;11.98;100.00;100993.53;4974937;28;20603;-81
2021/03/30 09:49:23;;;;;;;4.18;1.02;;;;;;;12.22;100.00;100993.78;4968876;28;20061;-82
2021/03/30 09:52:30;;;;;;;3.05;1.63;;;;;;;12.45;100.00;100992.50;4973973;28;20168;-81
2021/03/30 09:55:34;;;;;;;3.50;1.85;;;;;;;12.68;100.00;100994.72;4973149;28;20179;-81
2021/03/30 09:58:38;;;;;;;6.55;1.60;;;;;;;12.81;100.00;100996.16;4971713;28;20093;-80
2021/03/30 10:01:42;;;;;;;4.85;1.08;;;;;;;12.98;100.00;100993.06;4973351;28;20293;-79
2021/03/30 10:04:51;;;;;;;4.50;1.08;;;;;;;13.17;100.00;100989.84;4964895;28;20357;-80
2021/03/30 10:07:55;;;;;;;3.03;1.05;;;;;;;13.43;100.00;100995.88;4972695;28;20267;-80
2021/03/30 10:10:59;;;;;;;1.70;1.23;;;;;;;13.60;100.00;100989.50;4974745;28;20081;-81
2021/03/30 10:14:19;;;;;;;2.40;1.15;;;;;;;13.80;100.00;100991.78;4975881;28;20084;-81
2021/03/30 10:17:26;;;;;;;0.95;0.65;;;;;;;13.90;100.00;100987.75;4972587;28;20576;-82
2021/03/30 10:20:29;;;;;;;2.65;1.35;;;;;;;14.02;100.00;100986.75;4970414;28;20285;-78
2021/03/30 10:23:40;;;;;;;7.97;1.60;;;;;;;14.13;100.00;100980.66;4970133;28;20259;-78
2021/03/30 10:27:09;;;;;;;3.58;1.35;;;;;;;14.24;100.00;100987.31;4971436;28;20084;-78
2021/03/30 10:30:13;;;;;;;3.45;1.08;;;;;;;14.29;100.00;100985.94;4972446;28;20278;-78
2021/03/30 10:33:41;;;;;;;2.75;1.33;;;;;;;14.40;100.00;100977.78;4989158;28;20513;-78
2021/03/30 10:36:44;;;;;;;3.08;1.25;;;;;;;14.54;100.00;100979.88;4992108;28;20174;-78
2021/03/30 10:39:48;;;;;;;9.55;1.40;;;;;;;14.74;100.00;100985.69;4998241;28;20273;-78
2021/03/30 10:42:52;;;;;;;2.00;0.88;;;;;;;14.85;100.00;100974.69;4996434;28;20253;-77
2021/03/30 10:45:55;;;;;;;21.77;1.35;;;;;;;15.00;100.00;100981.16;4993172;28;20061;-77
2021/03/30 10:49:05;;;;;;;5.55;1.30;;;;;;;14.98;100.00;100972.44;4992212;28;20166;-78
2021/03/30 10:52:15;;;;;;;7.47;1.88;;;;;;;15.12;100.00;100977.28;4992960;28;20277;-77
2021/03/30 10:55:20;;;;;;;2.90;1.48;;;;;;;15.19;100.00;100979.75;4993106;28;20073;-78
2021/03/30 10:58:24;;;;;;;3.10;1.05;;;;;;;15.28;100.00;100972.50;4992109;28;20177;-78
2021/03/30 11:01:27;;;;;;;5.53;1.63;;;;;;;15.32;100.00;100973.06;4993449;28;20347;-78
2021/03/30 11:04:31;;;;;;;6.95;2.08;;;;;;;15.44;100.00;100961.59;4991187;28;20082;-78
2021/03/30 11:07:35;;;;;;;5.53;1.10;;;;;;;15.53;100.00;100961.53;4990403;28;20369;-78
2021/03/30 11:10:39;;;;;;;5.45;1.15;;;;;;;15.65;100.00;100960.47;4989509;28;20269;-77
2021/03/30 11:13:43;;;;;;;3.13;1.75;;;;;;;15.72;100.00;100962.88;4990396;28;20323;-80
2021/03/30 11:16:46;;;;;;;3.28;1.40;;;;;;;15.79;100.00;100961.72;4983689;28;20096;-81
2021/03/30 11:19:50;;;;;;;3.25;0.75;;;;;;;15.90;100.00;100956.28;4991720;28;20087;-78
2021/03/30 11:22:54;;;;;;;0.85;0.70;;;;;;;16.01;100.00;100952.88;4992975;28;20273;-78
2021/03/30 11:25:58;;;;;;;6.10;0.82;;;;;;;16.09;100.00;100952.00;4993803;28;20095;-79
2021/03/30 11:29:02;;;;;;;2.78;1.67;;;;;;;16.16;100.00;100939.59;4996114;28;20060;-78
2021/03/30 11:35:28;;;;;;;5.25;1.38;;;;;;;16.25;100.00;100948.69;4986722;28;20064;-79
2021/03/30 11:38:32;;;;;;;6.45;0.70;;;;;;;16.25;100.00;100934.63;4990135;28;20064;-77
2021/03/30 11:41:35;;;;;;;3.95;2.28;;;;;;;16.37;100.00;100939.13;4991353;28;20571;-76
2021/03/30 11:44:39;;;;;;;4.63;1.73;;;;;;;16.48;100.00;100942.13;4990862;28;20171;-76
2021/03/30 11:47:43;;;;;;;2.60;1.55;;;;;;;16.52;100.00;100939.91;4992002;28;20072;-78
2021/03/30 11:50:49;;;;;;;6.45;2.17;;;;;;;16.60;100.00;100935.44;4984838;28;20262;-78
2021/03/30 11:53:53;;;;;;;14.63;2.15;;;;;;;16.68;100.00;100930.91;4991903;28;20364;-79
2021/03/30 11:56:57;;;;;;;3.75;1.10;;;;;;;16.84;100.00;100931.63;4985626;28;20179;-78
2021/03/30 12:00:00;;;;;;;4.80;1.60;;;;;;;16.99;100.00;100926.69;4978493;28;20147;-79
2021/03/30 12:03:04;;;;;;;2.75;1.65;;;;;;;17.07;100.00;100922.16;4975468;28;20340;-78
2021/03/30 12:06:08;;;;;;;13.40;3.15;;;;;;;17.12;100.00;100925.06;4981990;28;20068;-77
2021/03/30 12:09:11;;;;;;;4.15;1.50;;;;;;;17.22;100.00;100923.63;4978099;28;20050;-77
2021/03/30 12:12:15;;;;;;;1.58;0.98;;;;;;;17.31;100.00;100920.66;4965246;28;20679;-77
2021/03/30 12:15:19;;;;;;;10.32;2.80;;;;;;;17.36;100.00;100927.63;4965423;28;20278;-79
2021/03/30 12:18:23;;;;;;;6.25;3.10;;;;;;;17.39;100.00;100918.16;4978228;28;20346;-79
2021/03/30 12:21:26;;;;;;;4.18;1.95;;;;;;;17.41;100.00;100919.22;4978610;28;20312;-78
2021/03/30 12:24:30;;;;;;;17.65;2.00;;;;;;;17.53;100.00;100919.34;4975322;28;20293;-77
2021/03/30 12:27:34;;;;;;;6.88;1.92;;;;;;;17.56;100.00;100918.38;4976888;28;20046;-76
2021/03/30 12:30:38;;;;;;;5.85;1.70;;;;;;;17.42;100.00;100914.34;4974045;28;20057;-76
2021/03/30 12:33:41;;;;;;;3.42;1.95;;;;;;;17.30;100.00;100909.91;4978098;28;20694;-76
2021/03/30 12:36:45;;;;;;;6.90;1.55;;;;;;;17.24;100.00;100911.84;4979872;28;20643;-77
2021/03/30 12:39:49;;;;;;;11.60;2.53;;;;;;;17.47;100.00;100908.03;4980849;28;20620;-78
2021/03/30 12:42:52;;;;;;;10.10;2.00;;;;;;;17.73;100.00;100899.56;4978924;28;20579;-80
2021/03/30 12:45:55;;;;;;;9.95;1.73;;;;;;;17.90;100.00;100898.44;4982518;28;20703;-79
2021/03/30 12:48:59;;;;;;;3.85;1.15;;;;;;;18.05;100.00;100899.06;4980191;28;20187;-79
2021/03/30 12:52:03;;;;;;;6.55;1.90;;;;;;;18.13;100.00;100899.34;4981421;28;20430;-81
2021/03/30 12:55:10;;;;;;;5.30;1.08;;;;;;;18.25;100.00;100894.56;4978232;28;20076;-78
2021/03/30 12:58:14;;;;;;;7.07;2.15;;;;;;;18.28;100.00;100893.56;4979340;28;20282;-78
2021/03/30 13:01:18;;;;;;;3.17;1.10;;;;;;;18.36;100.00;100883.34;4981178;28;20077;-77
2021/03/30 13:04:21;;;;;;;4.55;1.83;;;;;;;18.43;100.00;100886.44;4985865;28;20081;-79
2021/03/30 13:07:25;;;;;;;6.78;1.60;;;;;;;18.56;100.00;100877.59;4995394;28;20182;-79
2021/03/30 13:10:29;;;;;;;3.97;1.73;;;;;;;18.64;100.00;100870.19;5017800;28;20273;-85
2021/03/30 13:13:32;;;;;;;5.10;1.58;;;;;;;18.71;100.00;100870.44;5000741;28;20676;-78
2021/03/30 13:16:36;;;;;;;5.35;0.98;;;;;;;18.81;100.00;100868.19;4995755;28;20185;-78
2021/03/30 13:19:40;;;;;;;1.63;1.00;;;;;;;18.94;100.00;100860.00;4995085;28;20537;-79
2021/03/30 13:22:45;;;;;;;5.28;0.90;;;;;;;19.04;100.00;100866.97;4996860;28;20072;-77
2021/03/30 13:25:48;;;;;;;1.48;0.80;;;;;;;19.26;100.00;100858.53;4995458;28;20178;-79
2021/03/30 13:28:52;;;;;;;4.70;1.23;;;;;;;19.32;100.00;100845.19;4995271;28;20633;-78
2021/03/30 13:31:55;;;;;;;3.28;0.65;;;;;;;19.34;100.00;100845.47;4995641;28;20533;-77
2021/03/30 13:34:59;;;;;;;8.25;1.95;;;;;;;19.43;100.00;100848.06;4993169;28;20285;-77
2021/03/30 13:38:04;;;;;;;3.08;0.85;;;;;;;19.49;100.00;100848.81;4992262;28;20449;-79
2021/03/30 13:41:08;;;;;;;6.65;2.30;;;;;;;19.48;100.00;100852.16;4993441;28;20528;-79
2021/03/30 13:44:11;;;;;;;4.72;1.25;;;;;;;19.46;100.00;100843.44;4992712;28;20115;-79
2021/03/30 13:47:15;;;;;;;6.75;1.80;;;;;;;19.31;100.00;100843.66;4992445;28;20678;-80
2021/03/30 13:50:19;;;;;;;10.43;1.73;;;;;;;19.22;100.00;100846.72;4993991;28;20182;-81
2021/03/30 13:53:22;;;;;;;2.95;1.13;;;;;;;18.97;100.00;100842.06;4994940;28;20049;-82
2021/03/30 13:56:26;;;;;;;7.20;1.77;;;;;;;18.78;100.00;100836.09;4995656;28;20697;-82
2021/03/30 13:59:30;;;;;;;6.78;1.33;;;;;;;18.77;100.00;100816.88;4995076;28;20052;-80
2021/03/30 14:02:34;;;;;;;6.28;2.00;;;;;;;18.92;100.00;100823.06;4993649;28;20065;-82
2021/03/30 14:05:38;;;;;;;14.85;0.85;;;;;;;19.13;100.00;100810.25;4996046;28;20068;-81
2021/03/30 14:08:42;;;;;;;5.28;1.58;;;;;;;19.37;100.00;100801.31;4993808;28;20057;-81
2021/03/30 14:14:56;;;;;;;5.75;1.40;;;;;;;19.72;100.00;100797.94;4993101;28;20691;-81
2021/03/30 14:18:25;;;;;;;4.28;0.88;;;;;;;19.68;100.00;100798.97;4989554;28;20065;-81
2021/03/30 14:21:40;;;;;;;1.58;0.55;;;;;;;19.51;100.00;100801.03;4970141;28;20720;-81
2021/03/30 14:25:02;;;;;;;2.92;0.47;;;;;;;19.26;100.00;100802.03;4991437;28;20254;-82
2021/03/30 14:28:06;;;;;;;4.95;1.02;;;;;;;19.04;100.00;100799.19;4989149;28;20265;-80
2021/03/30 14:31:10;;;;;;;10.18;1.00;;;;;;;18.89;100.00;100804.31;4989860;28;20076;-81
2021/03/30 14:34:13;;;;;;;4.03;1.48;;;;;;;18.83;100.00;100800.69;4971025;28;20159;-80
2021/03/30 14:37:20;;;;;;;2.55;0.30;;;;;;;18.84;100.00;100802.25;4970148;28;20085;-81